Time;durP1;ratioP1;P1;durP2;ratioP2;P2;SDS_P1;SDS_P2;PMS_P1;PMS_P2;Temp;Humidity;BMP_temperature;BMP_pressure;BME280_temperature;BME280_humidity;BME280_pressure;Samples;Min_cycle;Max_cycle;Signal;HPM_P1;HPM_P2
2022/08/29 00:02:06;;;;;;;12.80;4.20;;;;;;;;;;4953446;29;20027;-76
2022/08/29 00:04:32;;;;;;;10.13;4.38;;;;;;;;;;4936342;29;20039;-77
2022/08/29 00:06:57;;;;;;;9.32;4.55;;;;;;;;;;4952891;29;20063;-77
2022/08/29 00:09:23;;;;;;;9.90;4.50;;;;;;;;;;4936384;29;20509;-76
2022/08/29 00:11:48;;;;;;;12.27;4.65;;;;;;;;;;4953495;29;20035;-76
2022/08/29 00:14:14;;;;;;;9.32;4.50;;;;;;;;;;4952890;29;20031;-77
2022/08/29 00:16:39;;;;;;;11.23;4.05;;;;;;;;;;4934940;29;20043;-78
2022/08/29 00:19:05;;;;;;;12.57;4.85;;;;;;;;;;4952750;29;20082;-77
2022/08/29 00:21:30;;;;;;;9.93;4.38;;;;;;;;;;4928434;29;20495;-78
2022/08/29 00:23:56;;;;;;;9.43;3.63;;;;;;;;;;4932784;29;20050;-77
2022/08/29 00:26:22;;;;;;;9.70;4.13;;;;;;;;;;4954484;28;20046;-76
2022/08/29 00:28:47;;;;;;;12.25;3.80;;;;;;;;;;4956897;28;20475;-77
2022/08/29 00:31:13;;;;;;;13.57;4.55;;;;;;;;;;4956963;29;20050;-76
2022/08/29 00:33:38;;;;;;;8.15;3.70;;;;;;;;;;4931365;29;20635;-77
2022/08/29 00:36:04;;;;;;;11.23;4.18;;;;;;;;;;4939856;29;20379;-77
2022/08/29 00:38:29;;;;;;;9.98;4.18;;;;;;;;;;4956700;29;20036;-77
2022/08/29 00:40:55;;;;;;;9.07;4.40;;;;;;;;;;4939733;29;20475;-77
2022/08/29 00:43:24;;;;;;;9.82;3.95;;;;;;;;;;4930424;29;20055;-77
2022/08/29 00:45:52;;;;;;;11.05;3.90;;;;;;;;;;4956805;29;20390;-77
2022/08/29 00:48:18;;;;;;;13.63;4.53;;;;;;;;;;4922817;29;20035;-76
2022/08/29 00:50:51;;;;;;;8.57;3.72;;;;;;;;;;4956681;28;20045;-77
2022/08/29 00:53:18;;;;;;;10.63;3.90;;;;;;;;;;4956596;29;20042;-77
2022/08/29 00:55:44;;;;;;;8.63;3.90;;;;;;;;;;4939301;29;20035;-75
2022/08/29 00:58:27;;;;;;;8.05;3.70;;;;;;;;;;4956264;29;20401;-76
2022/08/29 01:00:53;;;;;;;11.98;4.05;;;;;;;;;;4925354;29;20036;-76
2022/08/29 01:03:18;;;;;;;7.60;3.40;;;;;;;;;;4942369;29;20023;-76
2022/08/29 01:05:45;;;;;;;8.95;3.80;;;;;;;;;;4956542;29;20042;-77
2022/08/29 01:08:10;;;;;;;9.52;4.18;;;;;;;;;;4955855;29;20485;-77
2022/08/29 01:13:24;;;;;;;8.95;3.70;;;;;;;;;;4941388;29;20491;-76
2022/08/29 01:15:50;;;;;;;9.20;3.60;;;;;;;;;;4949186;29;20039;-76
2022/08/29 01:18:15;;;;;;;5.80;3.70;;;;;;;;;;4956013;29;20047;-76
2022/08/29 01:20:44;;;;;;;11.25;3.80;;;;;;;;;;4938063;29;20037;-76
2022/08/29 01:23:13;;;;;;;9.35;4.00;;;;;;;;;;4955941;29;20031;-77
2022/08/29 01:25:40;;;;;;;10.07;4.07;;;;;;;;;;4939581;29;20030;-77
2022/08/29 01:28:16;;;;;;;7.20;4.18;;;;;;;;;;4954758;29;20384;-77
2022/08/29 01:31:01;;;;;;;7.20;4.25;;;;;;;;;;4925680;29;20035;-77
2022/08/29 01:33:35;;;;;;;6.25;3.65;;;;;;;;;;4943216;29;20040;-76
2022/08/29 01:36:01;;;;;;;9.95;3.78;;;;;;;;;;4955385;29;20031;-77
2022/08/29 01:38:26;;;;;;;9.05;4.43;;;;;;;;;;4955851;28;20054;-77
2022/08/29 01:40:55;;;;;;;11.35;4.22;;;;;;;;;;4935559;29;20516;-77
2022/08/29 01:43:21;;;;;;;10.13;4.60;;;;;;;;;;4951732;29;20055;-77
2022/08/29 01:45:47;;;;;;;8.45;3.83;;;;;;;;;;4947173;29;20031;-76
2022/08/29 01:48:13;;;;;;;9.02;4.20;;;;;;;;;;4934173;28;20418;-76
2022/08/29 01:50:38;;;;;;;8.20;3.90;;;;;;;;;;4955540;29;20067;-76
2022/08/29 01:53:04;;;;;;;9.85;4.40;;;;;;;;;;4955056;29;20075;-77
2022/08/29 01:55:29;;;;;;;9.57;4.07;;;;;;;;;;4935087;29;20040;-77
2022/08/29 01:57:55;;;;;;;8.80;4.22;;;;;;;;;;4932582;29;20079;-76
2022/08/29 02:00:21;;;;;;;11.85;4.25;;;;;;;;;;4955149;29;20039;-76
2022/08/29 02:02:46;;;;;;;12.00;4.30;;;;;;;;;;4922057;29;20027;-76
2022/08/29 02:05:12;;;;;;;7.43;4.45;;;;;;;;;;4955015;29;20114;-77
2022/08/29 02:07:37;;;;;;;7.93;4.10;;;;;;;;;;4955052;29;20037;-76
2022/08/29 02:10:03;;;;;;;14.52;4.55;;;;;;;;;;4954866;29;20471;-76
2022/08/29 02:12:30;;;;;;;11.55;4.80;;;;;;;;;;4937862;29;20034;-75
2022/08/29 02:14:56;;;;;;;11.30;4.40;;;;;;;;;;4954567;29;20114;-76
2022/08/29 02:17:22;;;;;;;9.90;3.83;;;;;;;;;;4954308;29;20127;-77
2022/08/29 02:19:48;;;;;;;10.07;4.18;;;;;;;;;;4934378;29;20048;-77
2022/08/29 02:22:13;;;;;;;9.93;4.20;;;;;;;;;;4950991;29;20027;-76
2022/08/29 02:24:39;;;;;;;9.35;4.10;;;;;;;;;;4937621;29;20066;-77
2022/08/29 02:27:04;;;;;;;8.23;3.88;;;;;;;;;;4954378;29;20023;-76
2022/08/29 02:29:30;;;;;;;8.15;4.35;;;;;;;;;;4936261;29;20447;-77
2022/08/29 02:31:56;;;;;;;9.50;4.30;;;;;;;;;;4937399;29;20035;-77
2022/08/29 02:34:22;;;;;;;8.77;4.30;;;;;;;;;;4954136;29;20043;-76
2022/08/29 02:36:47;;;;;;;11.50;4.53;;;;;;;;;;4954832;29;20054;-77
2022/08/29 02:39:13;;;;;;;7.72;4.28;;;;;;;;;;4922359;29;20039;-76
2022/08/29 02:41:38;;;;;;;9.07;4.45;;;;;;;;;;4938138;28;20031;-77
2022/08/29 02:44:04;;;;;;;11.48;5.35;;;;;;;;;;4955007;28;20055;-77
2022/08/29 02:46:29;;;;;;;7.15;4.50;;;;;;;;;;4938125;29;20046;-78
2022/08/29 02:48:55;;;;;;;9.65;4.45;;;;;;;;;;4954018;28;20031;-76
2022/08/29 02:51:21;;;;;;;12.23;4.25;;;;;;;;;;4954824;29;20027;-77
2022/08/29 02:53:47;;;;;;;9.52;4.60;;;;;;;;;;4954592;29;20557;-76
2022/08/29 02:56:13;;;;;;;10.20;4.55;;;;;;;;;;4931265;28;20162;-77
2022/08/29 02:58:38;;;;;;;11.10;4.60;;;;;;;;;;4952766;29;20031;-77
2022/08/29 03:01:04;;;;;;;10.48;5.63;;;;;;;;;;4919622;29;20024;-77
2022/08/29 03:03:31;;;;;;;10.60;5.38;;;;;;;;;;4943945;29;20126;-77
2022/08/29 03:05:56;;;;;;;8.55;5.38;;;;;;;;;;4937482;29;20019;-78
2022/08/29 03:08:21;;;;;;;12.35;5.28;;;;;;;;;;4954571;28;20042;-77
2022/08/29 03:10:47;;;;;;;10.93;5.35;;;;;;;;;;4953880;29;20122;-77
2022/08/29 03:13:13;;;;;;;7.35;5.07;;;;;;;;;;4953050;29;20434;-77
2022/08/29 03:15:39;;;;;;;7.72;4.63;;;;;;;;;;4953991;29;20035;-77
2022/08/29 03:18:04;;;;;;;11.25;4.85;;;;;;;;;;4952754;29;20506;-76
2022/08/29 03:20:32;;;;;;;7.43;4.25;;;;;;;;;;4952448;29;20110;-77
2022/08/29 03:22:57;;;;;;;9.85;4.78;;;;;;;;;;4953861;29;20475;-77
2022/08/29 03:25:23;;;;;;;13.32;5.35;;;;;;;;;;4948917;29;20118;-77
2022/08/29 03:27:48;;;;;;;7.68;4.80;;;;;;;;;;4944467;29;20062;-78
2022/08/29 03:30:14;;;;;;;10.45;4.80;;;;;;;;;;4936554;29;20494;-77
2022/08/29 03:32:40;;;;;;;9.68;4.93;;;;;;;;;;4953686;29;20043;-77
2022/08/29 03:35:06;;;;;;;8.93;4.60;;;;;;;;;;4953671;29;20030;-77
2022/08/29 03:37:31;;;;;;;9.85;4.82;;;;;;;;;;4937014;29;20066;-77
2022/08/29 03:39:57;;;;;;;9.75;4.78;;;;;;;;;;4948049;29;20131;-77
2022/08/29 03:42:22;;;;;;;9.38;5.05;;;;;;;;;;4936918;29;20044;-77
2022/08/29 03:44:48;;;;;;;13.57;4.43;;;;;;;;;;4953162;29;20518;-77
2022/08/29 03:47:13;;;;;;;12.35;5.10;;;;;;;;;;4953735;28;20049;-77
2022/08/29 03:49:39;;;;;;;11.50;4.43;;;;;;;;;;4954131;29;20031;-78
2022/08/29 03:52:04;;;;;;;8.45;4.75;;;;;;;;;;4952554;29;20509;-76
2022/08/29 03:54:30;;;;;;;10.32;5.32;;;;;;;;;;4953684;28;20043;-77
2022/08/29 03:56:55;;;;;;;12.82;4.97;;;;;;;;;;4935559;29;20167;-76
2022/08/29 03:59:21;;;;;;;9.25;5.03;;;;;;;;;;4953665;29;20039;-77
2022/08/29 04:01:47;;;;;;;16.33;5.18;;;;;;;;;;4954014;28;20035;-77
2022/08/29 04:05:05;;;;;;;14.57;5.00;;;;;;;;;;4941379;28;20507;-77
2022/08/29 04:06:59;;;;;;;13.13;4.95;;;;;;;;;;4943438;29;20046;-78
2022/08/29 04:09:25;;;;;;;13.60;5.45;;;;;;;;;;4934796;29;20067;-76
2022/08/29 04:11:50;;;;;;;10.23;6.15;;;;;;;;;;4952958;28;20047;-76
2022/08/29 04:14:15;;;;;;;13.82;4.68;;;;;;;;;;4937063;29;20060;-77
2022/08/29 04:16:41;;;;;;;9.57;4.32;;;;;;;;;;4951411;28;20510;-76
2022/08/29 04:19:06;;;;;;;9.95;5.20;;;;;;;;;;4957532;29;20051;-78
2022/08/29 04:21:33;;;;;;;10.70;4.80;;;;;;;;;;4955365;28;20039;-77
2022/08/29 04:23:58;;;;;;;11.20;4.90;;;;;;;;;;4947145;29;20027;-76
2022/08/29 04:26:24;;;;;;;9.30;4.55;;;;;;;;;;4933342;29;20041;-76
2022/08/29 04:28:49;;;;;;;10.65;4.57;;;;;;;;;;4957306;29;20023;-76
2022/08/29 04:31:19;;;;;;;9.45;4.28;;;;;;;;;;4923901;29;20089;-78
2022/08/29 04:33:45;;;;;;;12.77;4.65;;;;;;;;;;4939842;29;20061;-78
2022/08/29 04:36:10;;;;;;;10.90;4.55;;;;;;;;;;4937109;29;20044;-76
2022/08/29 04:38:36;;;;;;;7.55;4.53;;;;;;;;;;4952499;28;20035;-77
2022/08/29 04:41:03;;;;;;;10.57;4.10;;;;;;;;;;4957169;28;20039;-76
2022/08/29 04:43:29;;;;;;;15.25;5.05;;;;;;;;;;4939563;29;20040;-77
2022/08/29 04:45:55;;;;;;;11.30;4.47;;;;;;;;;;4936737;29;20038;-77
2022/08/29 04:48:20;;;;;;;11.32;4.95;;;;;;;;;;4937016;29;20035;-77
2022/08/29 04:50:51;;;;;;;9.63;5.10;;;;;;;;;;4957208;29;20462;-76
2022/08/29 04:53:17;;;;;;;9.80;4.95;;;;;;;;;;4924137;29;20043;-77
2022/08/29 04:55:45;;;;;;;11.23;4.15;;;;;;;;;;4957373;29;20113;-79
2022/08/29 04:58:10;;;;;;;17.05;6.15;;;;;;;;;;4920584;29;20514;-77
2022/08/29 05:00:37;;;;;;;14.07;4.95;;;;;;;;;;4950922;29;20026;-78
2022/08/29 05:03:02;;;;;;;17.45;7.68;;;;;;;;;;4939375;29;20114;-76
2022/08/29 05:05:28;;;;;;;24.60;6.82;;;;;;;;;;4939040;29;20110;-77
2022/08/29 05:07:53;;;;;;;14.18;5.25;;;;;;;;;;4939283;29;20038;-78
2022/08/29 05:10:19;;;;;;;11.82;5.05;;;;;;;;;;4950487;29;20031;-78
2022/08/29 05:12:45;;;;;;;11.52;4.82;;;;;;;;;;4939704;29;20173;-78
2022/08/29 05:15:11;;;;;;;9.82;4.90;;;;;;;;;;4957162;29;20038;-79
2022/08/29 05:17:37;;;;;;;10.15;4.90;;;;;;;;;;4956697;28;20046;-77
2022/08/29 05:20:05;;;;;;;15.20;5.63;;;;;;;;;;4956872;29;20483;-78
2022/08/29 05:22:31;;;;;;;8.07;4.65;;;;;;;;;;4938778;29;20042;-79
2022/08/29 05:24:57;;;;;;;9.55;5.45;;;;;;;;;;4939993;29;20038;-79
2022/08/29 05:27:22;;;;;;;13.38;5.03;;;;;;;;;;4957351;28;20035;-79
2022/08/29 05:29:48;;;;;;;13.38;4.72;;;;;;;;;;4957632;29;20023;-78
2022/08/29 05:32:14;;;;;;;12.52;5.10;;;;;;;;;;4943550;28;20035;-78
2022/08/29 05:34:40;;;;;;;11.50;4.90;;;;;;;;;;4965260;28;20513;-79
2022/08/29 05:37:07;;;;;;;11.20;5.20;;;;;;;;;;4936685;29;20046;-81
2022/08/29 05:39:33;;;;;;;12.98;5.28;;;;;;;;;;4951497;29;20165;-79
2022/08/29 05:41:59;;;;;;;11.45;5.35;;;;;;;;;;4921385;29;20035;-78
2022/08/29 05:44:25;;;;;;;11.88;5.38;;;;;;;;;;4944126;29;20567;-79
2022/08/29 05:46:50;;;;;;;12.38;5.43;;;;;;;;;;4953675;28;20043;-79
2022/08/29 05:49:16;;;;;;;12.68;5.10;;;;;;;;;;4931907;29;20046;-84
2022/08/29 05:51:42;;;;;;;11.38;4.85;;;;;;;;;;4922247;28;20052;-80
2022/08/29 05:54:07;;;;;;;11.40;4.85;;;;;;;;;;4957224;29;20045;-77
2022/08/29 05:56:33;;;;;;;12.85;4.40;;;;;;;;;;4938982;29;20387;-79
2022/08/29 05:58:58;;;;;;;14.18;5.10;;;;;;;;;;4939273;29;20019;-78
2022/08/29 06:01:25;;;;;;;11.60;4.63;;;;;;;;;;4930645;29;20126;-78
2022/08/29 06:03:51;;;;;;;11.70;5.22;;;;;;;;;;4944001;29;20028;-78
2022/08/29 06:06:18;;;;;;;12.55;4.53;;;;;;;;;;4956986;29;20042;-78
2022/08/29 06:08:44;;;;;;;10.07;4.55;;;;;;;;;;4935884;29;20078;-78
2022/08/29 06:11:17;;;;;;;10.18;4.43;;;;;;;;;;4938122;29;20498;-78
2022/08/29 06:13:42;;;;;;;11.57;5.22;;;;;;;;;;4938552;29;20039;-79
2022/08/29 06:16:12;;;;;;;7.32;4.43;;;;;;;;;;4956450;28;20030;-78
2022/08/29 06:18:37;;;;;;;8.18;4.80;;;;;;;;;;4919754;29;20119;-80
2022/08/29 06:21:04;;;;;;;10.55;4.70;;;;;;;;;;4937927;29;20070;-79
2022/08/29 06:23:29;;;;;;;11.73;4.47;;;;;;;;;;4919588;29;20059;-78
2022/08/29 06:25:55;;;;;;;13.25;4.70;;;;;;;;;;4936164;29;20062;-79
2022/08/29 06:28:21;;;;;;;11.20;5.22;;;;;;;;;;4937256;29;20043;-80
2022/08/29 06:30:47;;;;;;;10.10;4.38;;;;;;;;;;4929367;29;20047;-78
2022/08/29 06:33:12;;;;;;;9.65;4.57;;;;;;;;;;4954135;29;20499;-78
2022/08/29 06:35:38;;;;;;;11.98;5.22;;;;;;;;;;4938091;29;20514;-78
2022/08/29 06:38:04;;;;;;;10.48;4.75;;;;;;;;;;4938873;29;20114;-78
2022/08/29 06:40:29;;;;;;;12.02;4.75;;;;;;;;;;4922540;29;20494;-78
2022/08/29 06:42:55;;;;;;;9.85;4.70;;;;;;;;;;4955333;29;20410;-80
2022/08/29 06:45:21;;;;;;;10.57;4.82;;;;;;;;;;4929781;29;20043;-77
2022/08/29 06:47:46;;;;;;;9.90;5.05;;;;;;;;;;4936624;29;20043;-79
2022/08/29 06:50:12;;;;;;;11.77;4.85;;;;;;;;;;4949925;29;20042;-78
2022/08/29 06:52:38;;;;;;;11.13;4.70;;;;;;;;;;4955299;29;20383;-78
2022/08/29 06:55:04;;;;;;;12.65;4.68;;;;;;;;;;4950808;29;20038;-79
2022/08/29 06:57:30;;;;;;;10.35;5.35;;;;;;;;;;4938691;29;20043;-78
2022/08/29 06:59:55;;;;;;;11.93;4.57;;;;;;;;;;4938078;29;20027;-81
2022/08/29 07:02:21;;;;;;;10.98;5.15;;;;;;;;;;4954164;29;20035;-80
2022/08/29 07:04:46;;;;;;;13.65;4.93;;;;;;;;;;4947853;29;20035;-78
2022/08/29 07:07:12;;;;;;;12.75;4.97;;;;;;;;;;4956201;29;20458;-80
2022/08/29 07:09:37;;;;;;;12.02;5.10;;;;;;;;;;4921873;28;20471;-78
2022/08/29 07:12:04;;;;;;;12.90;4.60;;;;;;;;;;4937139;29;20039;-77
2022/08/29 07:14:30;;;;;;;12.75;5.07;;;;;;;;;;4954120;29;20110;-81
2022/08/29 07:16:55;;;;;;;14.52;4.78;;;;;;;;;;4919904;29;20122;-79
2022/08/29 07:19:21;;;;;;;14.10;4.75;;;;;;;;;;4932925;29;20027;-78
2022/08/29 07:21:48;;;;;;;10.38;4.90;;;;;;;;;;4937956;29;20027;-78
2022/08/29 07:24:13;;;;;;;11.10;4.60;;;;;;;;;;4921685;29;20027;-77
2022/08/29 07:26:42;;;;;;;17.00;5.72;;;;;;;;;;4922786;29;20075;-79
2022/08/29 07:29:09;;;;;;;15.75;4.50;;;;;;;;;;4938270;28;20039;-80
2022/08/29 07:31:35;;;;;;;10.05;4.78;;;;;;;;;;4939713;29;20049;-79
2022/08/29 07:34:00;;;;;;;14.75;5.15;;;;;;;;;;4921712;29;20104;-79
2022/08/29 07:36:26;;;;;;;13.80;4.88;;;;;;;;;;4934951;29;20039;-79
2022/08/29 07:38:51;;;;;;;10.77;4.32;;;;;;;;;;4958044;28;20027;-78
2022/08/29 07:41:17;;;;;;;11.23;4.60;;;;;;;;;;4920503;29;20032;-79
2022/08/29 07:43:42;;;;;;;11.80;4.80;;;;;;;;;;4933441;29;20058;-83
2022/08/29 07:46:09;;;;;;;13.95;4.97;;;;;;;;;;4929097;29;20040;-82
2022/08/29 07:48:35;;;;;;;15.55;5.18;;;;;;;;;;4924361;29;20045;-79
2022/08/29 07:51:00;;;;;;;12.65;4.82;;;;;;;;;;4936830;29;20066;-79
2022/08/29 07:53:26;;;;;;;15.45;4.50;;;;;;;;;;4933505;29;20027;-79
2022/08/29 07:55:51;;;;;;;15.52;4.85;;;;;;;;;;4915210;29;20549;-79
2022/08/29 07:58:17;;;;;;;18.15;5.07;;;;;;;;;;4935028;29;20476;-80
2022/08/29 08:00:43;;;;;;;16.70;5.35;;;;;;;;;;4916487;29;20102;-79
2022/08/29 08:03:09;;;;;;;13.15;4.82;;;;;;;;;;4919693;29;20031;-79
2022/08/29 08:05:35;;;;;;;13.10;4.57;;;;;;;;;;4948687;29;20043;-81
2022/08/29 08:08:01;;;;;;;10.57;4.65;;;;;;;;;;4936056;29;20372;-79
2022/08/29 08:10:26;;;;;;;18.33;4.93;;;;;;;;;;4913126;29;20042;-79
2022/08/29 08:12:52;;;;;;;17.77;5.20;;;;;;;;;;4953017;29;20023;-80
2022/08/29 08:15:18;;;;;;;15.23;4.88;;;;;;;;;;4937854;29;20036;-79
2022/08/29 08:17:43;;;;;;;15.30;4.90;;;;;;;;;;4952548;29;20044;-82
2022/08/29 08:20:09;;;;;;;17.10;5.65;;;;;;;;;;4951828;29;20070;-80
2022/08/29 08:22:35;;;;;;;16.55;4.15;;;;;;;;;;4908585;29;20093;-79
2022/08/29 08:25:00;;;;;;;17.42;4.95;;;;;;;;;;4937473;29;20040;-81
2022/08/29 08:27:26;;;;;;;12.50;4.85;;;;;;;;;;4955910;29;20031;-80
2022/08/29 08:29:52;;;;;;;16.35;5.30;;;;;;;;;;4936144;29;20407;-78
2022/08/29 08:32:17;;;;;;;12.13;4.47;;;;;;;;;;4936749;29;20031;-79
2022/08/29 08:35:08;;;;;;;12.43;4.50;;;;;;;;;;4954086;29;20529;-77
2022/08/29 08:37:33;;;;;;;19.98;5.03;;;;;;;;;;4936141;29;20048;-79
2022/08/29 08:39:59;;;;;;;13.07;4.78;;;;;;;;;;4933449;29;20035;-80
2022/08/29 08:42:24;;;;;;;15.32;4.93;;;;;;;;;;4955081;29;20117;-79
2022/08/29 08:45:04;;;;;;;12.98;4.07;;;;;;;;;;4941117;29;20083;-80
2022/08/29 08:47:31;;;;;;;14.57;4.97;;;;;;;;;;4930021;29;20487;-80
2022/08/29 08:49:59;;;;;;;18.52;4.57;;;;;;;;;;4953379;29;20062;-79
2022/08/29 08:52:27;;;;;;;14.38;4.57;;;;;;;;;;4939964;29;20035;-80
2022/08/29 08:55:04;;;;;;;10.27;4.10;;;;;;;;;;4921897;29;20561;-78
2022/08/29 08:57:45;;;;;;;15.60;4.82;;;;;;;;;;4925884;29;20047;-82
2022/08/29 09:00:12;;;;;;;14.68;4.32;;;;;;;;;;4930524;29;20031;-81
2022/08/29 09:02:41;;;;;;;19.30;4.38;;;;;;;;;;4928159;29;20467;-80
2022/08/29 09:05:27;;;;;;;16.15;4.63;;;;;;;;;;4943277;29;20062;-80
2022/08/29 09:08:00;;;;;;;23.67;5.63;;;;;;;;;;4925449;29;20044;-78
2022/08/29 09:10:38;;;;;;;18.08;5.25;;;;;;;;;;4959447;29;20038;-79
2022/08/29 09:13:22;;;;;;;19.23;4.55;;;;;;;;;;4928670;29;20130;-79
2022/08/29 09:15:49;;;;;;;15.63;4.63;;;;;;;;;;4956995;29;20152;-80
2022/08/29 09:18:23;;;;;;;17.17;4.80;;;;;;;;;;4925325;29;20034;-83
2022/08/29 09:20:48;;;;;;;18.98;4.60;;;;;;;;;;4940752;29;20031;-80
2022/08/29 09:23:24;;;;;;;15.68;4.47;;;;;;;;;;4957600;29;20031;-80
2022/08/29 09:25:50;;;;;;;13.30;4.10;;;;;;;;;;4957298;29;20042;-79
2022/08/29 09:28:15;;;;;;;14.73;4.95;;;;;;;;;;4941506;29;20506;-79
2022/08/29 09:30:42;;;;;;;14.52;4.40;;;;;;;;;;4957267;29;20043;-79
2022/08/29 09:33:11;;;;;;;19.25;4.50;;;;;;;;;;4923014;29;20035;-80
2022/08/29 09:35:38;;;;;;;12.77;4.47;;;;;;;;;;4923044;29;20529;-81
2022/08/29 09:38:08;;;;;;;17.50;4.63;;;;;;;;;;4937799;29;20468;-78
2022/08/29 09:40:41;;;;;;;16.52;4.50;;;;;;;;;;4953649;29;20061;-79
2022/08/29 09:43:07;;;;;;;15.18;3.75;;;;;;;;;;4921412;29;20099;-80
2022/08/29 09:45:32;;;;;;;13.40;4.32;;;;;;;;;;4941398;29;20035;-81
2022/08/29 09:48:08;;;;;;;17.27;4.22;;;;;;;;;;4942127;29;20038;-79
2022/08/29 09:50:34;;;;;;;12.85;5.30;;;;;;;;;;4931296;29;20046;-79
2022/08/29 09:53:00;;;;;;;15.13;4.43;;;;;;;;;;4938832;29;20035;-81
2022/08/29 09:55:32;;;;;;;11.27;4.35;;;;;;;;;;4924260;29;20042;-81
2022/08/29 09:58:02;;;;;;;14.02;4.25;;;;;;;;;;4957295;28;20039;-81
2022/08/29 10:00:36;;;;;;;15.65;5.07;;;;;;;;;;4957073;29;20035;-79
2022/08/29 10:03:03;;;;;;;12.02;4.78;;;;;;;;;;4958711;29;20046;-81
2022/08/29 10:05:33;;;;;;;14.60;4.93;;;;;;;;;;4942962;29;20502;-80
2022/08/29 10:07:59;;;;;;;16.25;4.68;;;;;;;;;;4957310;29;20038;-79
2022/08/29 10:10:25;;;;;;;12.55;4.13;;;;;;;;;;4938745;29;20390;-81
2022/08/29 10:13:02;;;;;;;15.63;4.68;;;;;;;;;;4957689;29;20049;-79
2022/08/29 10:15:29;;;;;;;15.35;4.40;;;;;;;;;;4938474;29;20165;-81
2022/08/29 10:18:20;;;;;;;22.70;5.57;;;;;;;;;;4934272;29;20031;-78
2022/08/29 10:20:46;;;;;;;15.40;4.78;;;;;;;;;;4937116;29;20494;-80
2022/08/29 10:23:23;;;;;;;17.45;4.63;;;;;;;;;;4941382;29;20086;-78
2022/08/29 10:25:49;;;;;;;13.65;4.38;;;;;;;;;;4924814;29;20047;-79
2022/08/29 10:28:33;;;;;;;13.90;4.32;;;;;;;;;;4928294;29;20059;-81
2022/08/29 10:30:59;;;;;;;11.88;4.90;;;;;;;;;;4934929;29;20047;-82
2022/08/29 10:33:31;;;;;;;15.27;4.82;;;;;;;;;;4938390;29;20035;-80
2022/08/29 10:36:16;;;;;;;11.77;3.95;;;;;;;;;;4935265;29;20074;-81
2022/08/29 10:38:43;;;;;;;13.73;4.20;;;;;;;;;;4956869;28;20083;-79
2022/08/29 10:41:28;;;;;;;14.15;4.05;;;;;;;;;;4956450;29;20031;-81
2022/08/29 10:44:02;;;;;;;12.20;4.60;;;;;;;;;;4939967;29;20055;-82
2022/08/29 10:46:31;;;;;;;13.20;4.18;;;;;;;;;;4938935;29;20059;-83
2022/08/29 10:49:16;;;;;;;14.10;4.03;;;;;;;;;;4958125;29;20106;-81
2022/08/29 10:51:48;;;;;;;15.52;4.40;;;;;;;;;;4957346;29;20031;-79
2022/08/29 10:54:15;;;;;;;11.50;4.38;;;;;;;;;;4957672;29;20035;-79
2022/08/29 10:56:44;;;;;;;14.15;3.83;;;;;;;;;;4936779;29;20483;-78
2022/08/29 10:59:19;;;;;;;11.88;4.28;;;;;;;;;;4932574;29;20077;-82
2022/08/29 11:01:47;;;;;;;14.77;4.18;;;;;;;;;;4942807;29;20121;-82
2022/08/29 11:04:19;;;;;;;14.98;4.22;;;;;;;;;;4939163;29;20026;-79
2022/08/29 11:06:47;;;;;;;10.15;3.50;;;;;;;;;;4930236;29;20070;-79
2022/08/29 11:09:12;;;;;;;12.52;4.68;;;;;;;;;;4924642;29;20155;-81
2022/08/29 11:11:39;;;;;;;11.43;3.67;;;;;;;;;;4936876;29;20059;-78
2022/08/29 11:14:05;;;;;;;12.07;4.50;;;;;;;;;;4936393;28;20435;-81
2022/08/29 11:16:33;;;;;;;11.57;4.18;;;;;;;;;;4955803;29;20035;-80
2022/08/29 11:19:00;;;;;;;12.35;3.90;;;;;;;;;;4939313;29;20572;-79
2022/08/29 11:21:28;;;;;;;14.07;4.22;;;;;;;;;;4936040;28;20027;-79
2022/08/29 11:23:55;;;;;;;11.52;4.20;;;;;;;;;;4923215;29;20031;-80
2022/08/29 11:26:29;;;;;;;12.55;4.25;;;;;;;;;;4921305;29;20039;-83
2022/08/29 11:29:14;;;;;;;11.38;4.20;;;;;;;;;;4939261;29;20127;-82
2022/08/29 11:31:55;;;;;;;10.00;4.18;;;;;;;;;;4940505;29;20039;-83
2022/08/29 11:34:20;;;;;;;9.32;3.72;;;;;;;;;;4908256;29;20090;-81
2022/08/29 11:36:53;;;;;;;9.98;4.07;;;;;;;;;;4951889;29;20019;-79
2022/08/29 11:39:19;;;;;;;9.77;3.85;;;;;;;;;;4942019;29;20143;-80
2022/08/29 11:41:45;;;;;;;13.60;5.30;;;;;;;;;;4956034;29;20491;-80
2022/08/29 11:44:15;;;;;;;10.57;3.90;;;;;;;;;;4933528;29;20067;-79
2022/08/29 11:46:42;;;;;;;9.13;3.90;;;;;;;;;;4938324;29;20981;-80
2022/08/29 11:49:23;;;;;;;9.07;3.53;;;;;;;;;;4939348;29;20118;-80
2022/08/29 11:51:50;;;;;;;12.80;3.92;;;;;;;;;;4924439;29;20031;-81
2022/08/29 11:54:25;;;;;;;13.27;4.63;;;;;;;;;;4958152;29;20118;-79
2022/08/29 11:57:00;;;;;;;12.02;4.80;;;;;;;;;;4937596;29;20499;-81
2022/08/29 11:59:48;;;;;;;11.40;5.00;;;;;;;;;;4937663;29;20084;-81
2022/08/29 12:02:26;;;;;;;8.32;4.50;;;;;;;;;;4935357;29;20060;-81
2022/08/29 12:04:52;;;;;;;12.70;5.43;;;;;;;;;;4945960;29;20039;-79
2022/08/29 12:07:18;;;;;;;9.35;4.85;;;;;;;;;;4958646;28;20086;-81
2022/08/29 12:09:45;;;;;;;14.70;4.97;;;;;;;;;;4938156;29;20048;-79
2022/08/29 12:12:12;;;;;;;9.48;4.65;;;;;;;;;;4938764;29;20023;-82
2022/08/29 12:14:38;;;;;;;11.05;4.25;;;;;;;;;;4941875;29;20134;-80
2022/08/29 12:17:16;;;;;;;13.80;5.40;;;;;;;;;;4925051;29;20027;-81
2022/08/29 12:19:46;;;;;;;14.02;4.68;;;;;;;;;;4957560;29;20486;-83
2022/08/29 12:22:30;;;;;;;12.18;4.47;;;;;;;;;;4922367;29;20031;-79
2022/08/29 12:24:56;;;;;;;11.18;4.72;;;;;;;;;;4944629;29;20031;-81
2022/08/29 12:27:22;;;;;;;15.88;4.72;;;;;;;;;;4930101;29;20406;-80
2022/08/29 12:29:48;;;;;;;12.48;4.32;;;;;;;;;;4944256;29;20038;-81
2022/08/29 12:32:14;;;;;;;8.90;4.10;;;;;;;;;;4935425;29;20028;-80
2022/08/29 12:34:49;;;;;;;10.20;3.95;;;;;;;;;;4943654;28;20098;-79
2022/08/29 12:37:27;;;;;;;12.15;4.20;;;;;;;;;;4959544;29;20039;-80
2022/08/29 12:39:59;;;;;;;11.13;4.20;;;;;;;;;;4944737;29;20039;-83
2022/08/29 12:42:37;;;;;;;8.95;4.22;;;;;;;;;;4954570;29;20434;-84
2022/08/29 12:45:11;;;;;;;13.63;4.25;;;;;;;;;;4954215;29;20055;-82
2022/08/29 12:47:37;;;;;;;8.82;3.95;;;;;;;;;;4916351;29;20106;-82
2022/08/29 12:50:05;;;;;;;8.60;3.92;;;;;;;;;;4928347;29;20596;-79
2022/08/29 12:52:36;;;;;;;10.88;3.97;;;;;;;;;;4926059;29;20043;-80
2022/08/29 12:55:18;;;;;;;8.35;3.70;;;;;;;;;;4959840;29;20037;-80
2022/08/29 12:57:44;;;;;;;8.60;4.20;;;;;;;;;;4959326;29;20046;-82
2022/08/29 13:00:19;;;;;;;8.63;4.03;;;;;;;;;;4959335;29;20031;-81
2022/08/29 13:02:59;;;;;;;9.13;3.85;;;;;;;;;;4944127;29;20024;-81
2022/08/29 13:05:25;;;;;;;10.63;4.30;;;;;;;;;;4926442;29;20035;-81
2022/08/29 13:07:57;;;;;;;9.15;3.83;;;;;;;;;;4960312;29;20031;-81
2022/08/29 13:10:23;;;;;;;10.80;4.20;;;;;;;;;;4942930;29;20051;-83
2022/08/29 13:12:49;;;;;;;7.97;4.00;;;;;;;;;;4941250;29;20032;-80
2022/08/29 13:15:28;;;;;;;9.32;3.60;;;;;;;;;;4921908;29;20384;-79
2022/08/29 13:17:54;;;;;;;8.75;3.95;;;;;;;;;;4940272;29;20040;-80
2022/08/29 13:20:41;;;;;;;8.85;3.95;;;;;;;;;;4940944;29;20015;-80
2022/08/29 13:23:10;;;;;;;15.38;4.10;;;;;;;;;;4941316;29;20043;-79
2022/08/29 13:25:44;;;;;;;10.45;4.80;;;;;;;;;;4958759;29;20030;-81
2022/08/29 13:28:20;;;;;;;12.57;4.22;;;;;;;;;;4939099;29;20047;-83
2022/08/29 13:31:02;;;;;;;11.10;4.25;;;;;;;;;;4935486;29;20418;-80
2022/08/29 13:33:28;;;;;;;10.57;4.00;;;;;;;;;;4923948;29;20035;-81
2022/08/29 13:35:53;;;;;;;9.65;4.22;;;;;;;;;;4921741;29;20078;-80
2022/08/29 13:38:22;;;;;;;10.45;4.25;;;;;;;;;;4953891;29;20063;-80
2022/08/29 13:40:48;;;;;;;9.93;3.75;;;;;;;;;;4921541;29;20038;-80
2022/08/29 13:43:48;;;;;;;11.05;4.07;;;;;;;;;;4939179;29;20078;-80
2022/08/29 13:46:19;;;;;;;8.00;4.22;;;;;;;;;;4906655;29;20138;-80
2022/08/29 13:48:44;;;;;;;7.47;3.90;;;;;;;;;;4925273;29;20027;-81
2022/08/29 13:51:10;;;;;;;9.57;4.60;;;;;;;;;;4938037;29;20038;-80
2022/08/29 13:53:36;;;;;;;12.80;4.97;;;;;;;;;;4925886;29;20043;-78
2022/08/29 13:56:01;;;;;;;11.43;4.28;;;;;;;;;;4937014;29;20054;-80
2022/08/29 13:58:28;;;;;;;9.30;4.07;;;;;;;;;;4955443;29;20038;-81
2022/08/29 14:00:53;;;;;;;9.32;3.88;;;;;;;;;;4943360;29;20029;-79
2022/08/29 14:03:20;;;;;;;10.38;4.03;;;;;;;;;;4942214;29;20125;-80
2022/08/29 14:05:46;;;;;;;11.68;5.38;;;;;;;;;;4944750;29;20058;-81
2022/08/29 14:08:12;;;;;;;13.77;4.80;;;;;;;;;;4908007;29;20035;-81
2022/08/29 14:10:37;;;;;;;9.60;4.38;;;;;;;;;;4923697;29;20035;-80
2022/08/29 14:13:03;;;;;;;9.63;4.57;;;;;;;;;;4921300;29;20525;-79
2022/08/29 14:15:29;;;;;;;9.98;4.22;;;;;;;;;;4919306;29;20034;-80
2022/08/29 14:17:54;;;;;;;9.40;4.53;;;;;;;;;;4936606;29;20031;-79
2022/08/29 14:20:20;;;;;;;10.18;4.30;;;;;;;;;;4939231;29;20024;-79
2022/08/29 14:22:46;;;;;;;8.48;4.40;;;;;;;;;;4936700;29;20027;-79
2022/08/29 14:25:11;;;;;;;9.35;4.80;;;;;;;;;;4915559;29;20095;-80
2022/08/29 14:27:37;;;;;;;10.75;4.53;;;;;;;;;;4936195;29;20035;-79
2022/08/29 14:30:04;;;;;;;9.95;4.63;;;;;;;;;;4934339;29;20126;-77
2022/08/29 14:32:29;;;;;;;10.07;4.18;;;;;;;;;;4938407;29;20071;-81
2022/08/29 14:34:55;;;;;;;9.93;4.15;;;;;;;;;;4933770;29;20031;-79
2022/08/29 14:37:20;;;;;;;10.15;4.20;;;;;;;;;;4921581;29;20091;-82
2022/08/29 14:39:46;;;;;;;10.85;4.10;;;;;;;;;;4915884;29;20028;-81
2022/08/29 14:42:12;;;;;;;9.85;4.60;;;;;;;;;;4913928;29;20058;-80